createdAt,value
2018-02-12T00:00:22.049Z,85.66
2018-02-12T00:01:22.060Z,85.55
2018-02-12T00:02:22.089Z,85.25
2018-02-12T00:03:22.064Z,85.04
2018-02-12T00:04:22.060Z,85.06
2018-02-12T00:05:22.058Z,84.82
2018-02-12T00:06:22.056Z,84.43
2018-02-12T00:07:22.112Z,84.65
2018-02-12T00:08:22.056Z,84.45
2018-02-12T00:09:22.079Z,84.14
2018-02-12T00:10:22.056Z,84.21
2018-02-12T00:11:22.045Z,83.9
2018-02-12T00:12:22.089Z,83.69
2018-02-12T00:13:22.049Z,83.56
2018-02-12T00:14:22.052Z,83.44
2018-02-12T00:15:22.054Z,83.53
2018-02-12T00:16:22.053Z,83.49
2018-02-12T00:17:22.076Z,83.2
2018-02-12T00:18:22.064Z,83.4
2018-02-12T00:19:22.316Z,83.52
2018-02-12T00:20:22.288Z,83.17
2018-02-12T00:21:22.297Z,83.41
2018-02-12T00:22:22.318Z,83.19
2018-02-12T00:23:22.283Z,83.01
2018-02-12T00:24:22.291Z,83.07
2018-02-12T00:25:22.293Z,83.07
2018-02-12T00:26:22.308Z,83.08
2018-02-12T00:27:22.306Z,83.25
2018-02-12T00:28:22.293Z,83.25
2018-02-12T00:29:22.293Z,83.32
2018-02-12T00:30:22.312Z,83.38
2018-02-12T00:31:22.307Z,83.38
2018-02-12T00:34:22.323Z,83.07
2018-02-12T00:35:22.321Z,83.33
2018-02-12T00:36:22.305Z,83.41
2018-02-12T00:37:22.311Z,83.18
2018-02-12T00:38:22.293Z,83.37
2018-02-12T00:39:22.341Z,83.34
2018-02-12T00:40:22.301Z,83.35
2018-02-12T00:41:22.309Z,83.45
2018-02-12T00:42:22.316Z,83.39
2018-02-12T00:43:22.302Z,83.54
2018-02-12T00:44:22.308Z,83.69
2018-02-12T00:45:22.312Z,83.71
2018-02-12T00:46:22.304Z,83.69
2018-02-12T00:47:22.312Z,83.66
2018-02-12T00:48:22.355Z,83.79
2018-02-12T00:49:22.573Z,83.79
2018-02-12T00:50:22.582Z,83.76
2018-02-12T00:51:22.574Z,83.93
2018-02-12T00:52:22.577Z,84.06
2018-02-12T00:53:22.572Z,84.07
2018-02-12T00:54:22.564Z,84.11
2018-02-12T00:55:22.585Z,84.19
2018-02-12T00:56:22.579Z,84.27
2018-02-12T00:59:29.903Z,84.29
2018-02-12T01:00:22.591Z,84.16
2018-02-12T01:01:22.581Z,84.25
2018-02-12T01:02:22.604Z,84.25
2018-02-12T01:03:22.597Z,84.3
2018-02-12T01:04:22.570Z,84.3
2018-02-12T01:05:22.584Z,84.36
2018-02-12T01:06:23.147Z,84.32
2018-02-12T01:07:22.580Z,84.44
2018-02-12T01:08:22.717Z,84.47
2018-02-12T01:09:22.581Z,84.59
2018-02-12T01:10:22.582Z,84.66
2018-02-12T01:11:22.576Z,84.7
2018-02-12T01:12:22.600Z,84.73
2018-02-12T01:13:22.619Z,84.75
2018-02-12T01:14:22.596Z,84.84
2018-02-12T01:15:22.591Z,84.82
2018-02-12T01:16:22.570Z,84.9
2018-02-12T01:17:22.591Z,85.04
2018-02-12T01:18:22.594Z,85.17
2018-02-12T01:19:22.858Z,85.17
2018-02-12T01:20:22.830Z,85.11
2018-02-12T01:21:22.852Z,85.19
2018-02-12T01:22:22.849Z,85.28
2018-02-12T01:23:22.867Z,85.37
2018-02-12T01:24:22.828Z,85.42
2018-02-12T01:25:22.827Z,85.46
2018-02-12T01:26:22.854Z,85.51
2018-02-12T01:27:22.840Z,85.46
2018-02-12T01:28:22.837Z,85.42
2018-02-12T01:29:22.841Z,85.39
2018-02-12T01:30:22.862Z,85.54
2018-02-12T01:31:22.848Z,85.56
2018-02-12T01:32:23.867Z,85.6
2018-02-12T01:33:22.851Z,85.59
2018-02-12T01:34:22.856Z,85.74
2018-02-12T01:35:22.842Z,85.72
2018-02-12T01:36:22.895Z,85.68
2018-02-12T01:37:22.830Z,85.74
2018-02-12T01:38:23.118Z,86.07
2018-02-12T01:39:22.850Z,86.03
2018-02-12T01:40:22.837Z,85.88
2018-02-12T01:41:22.845Z,85.9
2018-02-12T01:42:22.851Z,85.85
2018-02-12T01:43:22.856Z,85.94
2018-02-12T01:44:22.835Z,85.93
2018-02-12T01:45:22.908Z,85.85
2018-02-12T01:46:22.832Z,85.86
2018-02-12T01:47:22.845Z,85.86
2018-02-12T01:48:22.833Z,85.93
2018-02-12T01:49:22.094Z,85.83
2018-02-12T01:50:22.052Z,86.02
2018-02-12T01:51:22.053Z,85.94
2018-02-12T01:52:22.056Z,85.94
2018-02-12T01:53:22.077Z,86.06
2018-02-12T01:54:22.079Z,86.1
2018-02-12T01:55:22.090Z,86.13
2018-02-12T01:56:22.043Z,86.12
2018-02-12T01:57:22.045Z,86
2018-02-12T01:58:22.061Z,86.1
2018-02-12T01:59:22.063Z,86.04
2018-02-12T02:00:25.030Z,86.07
2018-02-12T02:01:22.065Z,86.16
2018-02-12T02:02:26.823Z,86.35
2018-02-12T02:03:22.042Z,86.28
2018-02-12T02:04:22.195Z,86.26
2018-02-12T02:05:22.475Z,86.53
2018-02-12T02:06:23.963Z,86.49
2018-02-12T02:07:23.188Z,86.52
2018-02-12T02:08:24.896Z,86.55
2018-02-12T02:09:23.917Z,86.57
2018-02-12T02:10:22.063Z,86.45
2018-02-12T02:11:23.700Z,86.66
2018-02-12T02:12:24.259Z,86.53
2018-02-12T02:13:22.064Z,86.74
2018-02-12T02:14:22.090Z,86.72
2018-02-12T02:15:22.059Z,86.84
2018-02-12T02:16:22.063Z,86.93
2018-02-12T02:17:23.273Z,86.92
2018-02-12T02:18:22.068Z,87.11
2018-02-12T02:19:25.546Z,87.11
2018-02-12T02:20:23.257Z,87.36
2018-02-12T02:21:22.781Z,87.29
2018-02-12T02:22:23.977Z,87.32
2018-02-12T02:23:22.796Z,87.54
2018-02-12T02:24:26.049Z,87.54
2018-02-12T02:25:22.799Z,87.57
2018-02-12T02:26:22.791Z,87.52
2018-02-12T02:27:22.800Z,87.59
2018-02-12T02:28:23.290Z,87.48
2018-02-12T02:29:22.810Z,87.6
2018-02-12T02:30:25.989Z,87.5
2018-02-12T02:31:22.799Z,87.56
2018-02-12T02:32:22.803Z,87.63
2018-02-12T02:33:24.621Z,87.54
2018-02-12T02:34:22.843Z,87.53
2018-02-12T02:35:22.809Z,87.38
2018-02-12T02:36:23.855Z,87.37
2018-02-12T02:37:22.789Z,87.38
2018-02-12T02:38:25.263Z,87.26
2018-02-12T02:39:22.808Z,87.19
2018-02-12T02:40:22.830Z,87.27
2018-02-12T02:41:22.816Z,87.37
2018-02-12T02:42:22.811Z,87.28
2018-02-12T02:43:22.832Z,87.22
2018-02-12T02:44:31.460Z,87.25
2018-02-12T02:45:23.201Z,87.13
2018-02-12T02:46:24.127Z,87.14
2018-02-12T02:47:22.805Z,86.88
2018-02-12T02:48:22.812Z,86.84
2018-02-12T02:49:22.791Z,86.96
2018-02-12T02:50:22.817Z,86.94
2018-02-12T02:51:22.091Z,87.03
2018-02-12T02:52:22.078Z,86.97
2018-02-12T02:53:22.095Z,86.84
2018-02-12T02:54:22.722Z,86.83
2018-02-12T02:55:22.095Z,86.8
2018-02-12T02:56:26.613Z,86.83
2018-02-12T02:57:23.054Z,86.73
2018-02-12T02:58:22.088Z,86.78
2018-02-12T02:59:24.090Z,86.6
2018-02-12T03:00:23.989Z,86.71
2018-02-12T03:01:24.086Z,86.64
2018-02-12T03:02:22.087Z,86.65
2018-02-12T03:03:23.249Z,86.54
2018-02-12T03:04:22.104Z,86.59
2018-02-12T03:05:23.947Z,86.48
2018-02-12T03:06:29.836Z,86.54
2018-02-12T03:07:22.917Z,86.49
2018-02-12T03:08:24.717Z,86.52
2018-02-12T03:09:22.081Z,86.45
2018-02-12T03:10:22.380Z,86.43
2018-02-12T03:11:22.083Z,86.47
2018-02-12T03:13:22.098Z,86.45
2018-02-12T03:14:22.103Z,86.38
2018-02-12T03:15:25.941Z,86.3
2018-02-12T03:16:22.112Z,86.33
2018-02-12T03:17:23.832Z,86.3
2018-02-12T03:18:22.083Z,86.27
2018-02-12T03:19:23.479Z,86.31
2018-02-12T03:20:22.085Z,86.27
2018-02-12T03:21:22.224Z,86.32
2018-02-12T03:22:22.464Z,86.33
2018-02-12T03:23:22.442Z,86.31
2018-02-12T03:24:23.098Z,86.32
2018-02-12T03:25:22.448Z,86.36
2018-02-12T03:26:22.847Z,86.35
2018-02-12T03:27:22.452Z,86.33
2018-02-12T03:28:22.431Z,86.35
2018-02-12T03:29:24.015Z,86.5
2018-02-12T03:30:26.960Z,86.39
2018-02-12T03:31:31.581Z,86.35
2018-02-12T03:32:22.446Z,86.33
2018-02-12T03:33:24.517Z,86.27
2018-02-12T03:34:22.462Z,86.29
2018-02-12T03:35:25.130Z,86.22
2018-02-12T03:36:25.399Z,86.11
2018-02-12T03:37:22.446Z,86.08
2018-02-12T03:38:26.193Z,86.04
2018-02-12T03:39:22.718Z,86.1
2018-02-12T03:40:22.457Z,86.11
2018-02-12T03:41:22.447Z,86.05
2018-02-12T03:42:22.441Z,85.84
2018-02-12T03:43:22.436Z,85.89
2018-02-12T03:44:23.318Z,85.9
2018-02-12T03:45:22.447Z,85.93
2018-02-12T03:46:25.237Z,85.86
2018-02-12T03:47:22.470Z,85.7
2018-02-12T03:48:25.483Z,85.8
2018-02-12T03:49:27.567Z,85.79
2018-02-12T03:50:23.342Z,85.78
2018-02-12T03:51:22.449Z,85.85
2018-02-12T03:52:24.097Z,85.83
2018-02-12T03:53:24.029Z,85.89
2018-02-12T03:54:22.706Z,85.96
2018-02-12T03:55:22.727Z,85.89
2018-02-12T03:56:22.685Z,85.93
2018-02-12T03:57:22.692Z,85.88
2018-02-12T03:58:23.323Z,86.04
2018-02-12T03:59:22.691Z,85.84
2018-02-12T04:00:24.028Z,86
2018-02-12T04:01:26.976Z,86.13
2018-02-12T04:02:22.697Z,86.18
2018-02-12T04:03:22.687Z,86.52
2018-02-12T04:04:22.706Z,86.65
2018-02-12T04:05:22.717Z,86.96
2018-02-12T04:06:22.695Z,87.3
2018-02-12T04:07:22.695Z,87.46
2018-02-12T04:08:30.827Z,87.61
2018-02-12T04:09:22.676Z,87.81
2018-02-12T04:10:24.360Z,87.94
2018-02-12T04:11:22.689Z,87.75
2018-02-12T04:12:31.754Z,88.43
2018-02-12T04:13:22.742Z,88.58
2018-02-12T04:14:22.781Z,88.74
2018-02-12T04:15:23.031Z,89.07
2018-02-12T04:16:24.336Z,89.37
2018-02-12T04:17:22.706Z,89.27
2018-02-12T04:18:22.710Z,89.46
2018-02-12T04:19:25.648Z,89.66
2018-02-12T04:20:22.722Z,89.92
2018-02-12T04:21:22.698Z,90.16
2018-02-12T04:22:22.936Z,90.18
2018-02-12T04:23:22.955Z,90.32
2018-02-12T04:24:22.938Z,90.4
2018-02-12T04:25:22.991Z,90.61
2018-02-12T04:26:22.982Z,90.82
2018-02-12T04:27:23.386Z,90.57
2018-02-12T04:28:22.947Z,90.89
2018-02-12T04:29:22.952Z,91.13
2018-02-12T04:30:22.964Z,91.16
2018-02-12T04:31:23.057Z,91.32
2018-02-12T04:32:24.396Z,91.23
2018-02-12T04:33:27.195Z,91.35
2018-02-12T04:34:23.040Z,91.22
2018-02-12T04:35:25.681Z,91.18
2018-02-12T04:36:23.318Z,91.19
2018-02-12T04:37:22.951Z,91.1
2018-02-12T04:38:24.336Z,91.09
2018-02-12T04:39:22.970Z,91.33
2018-02-12T04:40:22.988Z,91.31
2018-02-12T04:41:23.004Z,91.17
2018-02-12T04:42:22.952Z,91.4
2018-02-12T04:43:30.006Z,91.55
2018-02-12T04:44:22.924Z,91.54
2018-02-12T04:45:22.964Z,91.66
2018-02-12T04:46:22.933Z,91.45
2018-02-12T04:47:22.950Z,91.74
2018-02-12T04:48:22.940Z,91.71
2018-02-12T04:49:23.008Z,91.98
2018-02-12T04:50:22.953Z,91.89
2018-02-12T04:51:24.200Z,91.84
2018-02-12T04:52:24.374Z,91.85
2018-02-12T04:53:22.142Z,91.87
2018-02-12T04:54:22.147Z,91.93
2018-02-12T04:55:22.162Z,91.89
2018-02-12T04:56:22.152Z,91.82
2018-02-12T04:57:27.074Z,91.78
2018-02-12T04:58:22.152Z,92
2018-02-12T04:59:22.159Z,92
2018-02-12T05:00:22.455Z,91.51
2018-02-12T05:01:22.158Z,91.87
2018-02-12T05:02:24.344Z,91.76
2018-02-12T05:03:25.149Z,91.69
2018-02-12T05:04:22.140Z,91.6
2018-02-12T05:05:22.188Z,91.82
2018-02-12T05:06:22.152Z,91.97
2018-02-12T05:07:26.341Z,91.64
2018-02-12T05:08:24.001Z,91.72
2018-02-12T05:09:24.186Z,91.73
2018-02-12T05:10:22.146Z,91.67
2018-02-12T05:11:25.566Z,91.7
2018-02-12T05:12:22.183Z,91.63
2018-02-12T05:13:23.098Z,91.72
2018-02-12T05:14:24.117Z,91.44
2018-02-12T05:15:22.353Z,91.42
2018-02-12T05:16:22.172Z,91.49
2018-02-12T05:17:24.243Z,91.57
2018-02-12T05:18:22.168Z,91.57
2018-02-12T05:19:22.174Z,91.58
2018-02-12T05:20:22.153Z,91.49
2018-02-12T05:22:22.154Z,91.46
2018-02-12T05:23:33.293Z,91.35
2018-02-12T05:23:41.870Z,91.46
2018-02-12T05:24:41.708Z,91.5
2018-02-12T05:25:41.703Z,91.99
2018-02-12T05:26:41.723Z,91.85
2018-02-12T05:27:41.705Z,92
2018-02-12T05:28:41.729Z,91.96
2018-02-12T05:29:42.377Z,91.78
2018-02-12T05:30:41.706Z,91.9
2018-02-12T05:31:43.813Z,91.88
2018-02-12T05:32:43.451Z,91.83
2018-02-12T05:33:45.856Z,91.86
2018-02-12T05:34:41.707Z,91.79
2018-02-12T05:35:41.689Z,91.81
2018-02-12T05:36:42.986Z,91.85
2018-02-12T05:37:41.950Z,91.78
2018-02-12T05:38:46.147Z,91.82
2018-02-12T05:39:41.742Z,91.7
2018-02-12T05:40:41.709Z,91.68
2018-02-12T05:42:44.513Z,91.68
2018-02-12T05:43:41.726Z,91.91
2018-02-12T05:44:41.710Z,91.87
2018-02-12T05:45:41.714Z,91.88
2018-02-12T05:46:41.735Z,91.99
2018-02-12T05:47:41.702Z,91.96
2018-02-12T05:48:41.705Z,92.02
2018-02-12T05:49:41.731Z,91.97
2018-02-12T05:50:41.726Z,92.02
2018-02-12T05:51:43.330Z,92.15
2018-02-12T05:52:45.475Z,92.2
2018-02-12T05:53:45.517Z,92.24
2018-02-12T05:54:41.774Z,92.31
2018-02-12T05:55:41.768Z,92.32
2018-02-12T05:56:42.903Z,92.32
2018-02-12T05:57:44.282Z,92.01
2018-02-12T05:58:41.775Z,92.3
2018-02-12T05:59:41.757Z,92.3
2018-02-12T06:00:41.771Z,92.19
2018-02-12T06:01:41.773Z,91.99
2018-02-12T06:02:41.773Z,92.22
2018-02-12T06:03:43.828Z,92.11
2018-02-12T06:04:41.770Z,92.38
2018-02-12T06:05:45.134Z,92.16
2018-02-12T06:06:44.844Z,92.07
2018-02-12T06:07:41.766Z,91.93
2018-02-12T06:08:42.563Z,91.92
2018-02-12T06:09:44.781Z,91.97
2018-02-12T06:10:43.778Z,91.66
2018-02-12T06:11:44.867Z,92.03
2018-02-12T06:12:41.753Z,92.22
2018-02-12T06:13:41.758Z,92.19
2018-02-12T06:14:41.767Z,92.19
2018-02-12T06:15:41.762Z,92.02
2018-02-12T06:16:41.782Z,91.7
2018-02-12T06:17:41.787Z,91.97
2018-02-12T06:18:41.753Z,92.21
2018-02-12T06:19:41.796Z,92.03
2018-02-12T06:20:41.768Z,91.81
2018-02-12T06:21:41.768Z,91.82
2018-02-12T06:22:41.804Z,91.88
2018-02-12T06:23:41.779Z,91.86
2018-02-12T06:24:41.765Z,91.8
2018-02-12T06:25:42.040Z,91.72
2018-02-12T06:26:42.021Z,91.57
2018-02-12T06:27:42.064Z,91.49
2018-02-12T06:28:42.018Z,91.62
2018-02-12T06:29:42.045Z,91.57
2018-02-12T06:30:42.062Z,91.59
2018-02-12T06:31:42.035Z,91.56
2018-02-12T06:32:42.048Z,91.31
2018-02-12T06:33:42.065Z,91.34
2018-02-12T06:34:42.062Z,91.28
2018-02-12T06:35:42.048Z,91.28
2018-02-12T06:36:42.118Z,91.26
2018-02-12T06:37:42.231Z,91.18
2018-02-12T06:38:42.119Z,91.11
2018-02-12T06:39:42.016Z,90.86
2018-02-12T06:40:42.028Z,90.77
2018-02-12T06:41:42.035Z,90.82
2018-02-12T06:42:42.045Z,90.8
2018-02-12T06:43:42.052Z,90.68
2018-02-12T06:44:42.029Z,90.76
2018-02-12T06:45:42.020Z,90.59
2018-02-12T06:46:42.071Z,90.64
2018-02-12T06:47:42.033Z,90.69
2018-02-12T06:48:42.045Z,90.27
2018-02-12T06:49:42.012Z,90.41
2018-02-12T06:50:42.028Z,90.56
2018-02-12T06:51:42.008Z,90.36
2018-02-12T06:52:42.017Z,90.37
2018-02-12T06:53:42.020Z,90.46
2018-02-12T06:54:42.065Z,90.36
2018-02-12T06:55:41.321Z,90.3
2018-02-12T06:56:41.322Z,90.21
2018-02-12T06:57:41.314Z,90.19
2018-02-12T06:58:41.324Z,90.19
2018-02-12T06:59:41.343Z,90.28
2018-02-12T07:00:41.323Z,90.5
2018-02-12T07:01:41.342Z,90.48
2018-02-12T07:02:41.321Z,90.45
2018-02-12T07:03:41.325Z,90.49
2018-02-12T07:04:41.311Z,90.4
2018-02-12T07:05:41.513Z,90.41
2018-02-12T07:06:41.325Z,90.52
2018-02-12T07:07:41.313Z,90.42
2018-02-12T07:08:41.322Z,90.27
2018-02-12T07:09:41.415Z,90.26
2018-02-12T07:10:41.318Z,90.1
2018-02-12T07:11:41.422Z,90.08
2018-02-12T07:12:41.407Z,89.74
2018-02-12T07:13:41.411Z,89.82
2018-02-12T07:14:41.304Z,89.73
2018-02-12T07:15:41.368Z,89.68
2018-02-12T07:16:41.325Z,89.68
2018-02-12T07:17:41.509Z,89.4
2018-02-12T07:18:41.318Z,89.65
2018-02-12T07:19:41.654Z,89.43
2018-02-12T07:20:41.327Z,89.65
2018-02-12T07:21:41.315Z,89.52
2018-02-12T07:22:41.421Z,89.19
2018-02-12T07:23:41.316Z,89.33
2018-02-12T07:24:41.641Z,89.58
2018-02-12T07:25:41.315Z,89.35
2018-02-12T07:26:41.558Z,89.76
2018-02-12T07:27:41.951Z,89.9
2018-02-12T07:28:41.569Z,89.67
2018-02-12T07:29:41.586Z,89.65
2018-02-12T07:30:41.558Z,89.55
2018-02-12T07:31:41.573Z,89.31
2018-02-12T07:32:41.603Z,89.15
2018-02-12T07:33:41.591Z,89.11
2018-02-12T07:34:41.556Z,89
2018-02-12T07:35:41.570Z,89.16
2018-02-12T07:36:41.559Z,89.09
2018-02-12T07:37:41.629Z,89.14
2018-02-12T07:38:41.543Z,89.88
2018-02-12T07:39:41.550Z,90.1
2018-02-12T07:40:41.615Z,89.98
2018-02-12T07:41:42.113Z,90.47
2018-02-12T07:42:41.700Z,90.69
2018-02-12T07:43:41.547Z,91.22
2018-02-12T07:44:42.123Z,91.44
2018-02-12T07:45:41.560Z,91.62
2018-02-12T07:46:41.567Z,92
2018-02-12T07:47:42.075Z,91.99
2018-02-12T07:48:41.560Z,91.95
2018-02-12T07:49:42.810Z,92.25
2018-02-12T07:50:41.812Z,92.05
2018-02-12T07:51:41.563Z,92.02
2018-02-12T07:52:41.952Z,92.09
2018-02-12T07:53:41.562Z,92.24
2018-02-12T07:54:41.591Z,92.62
2018-02-12T07:55:41.576Z,92.8
2018-02-12T07:56:41.821Z,93.03
2018-02-12T07:57:41.827Z,93.13
2018-02-12T07:58:41.833Z,93.41
2018-02-12T07:59:41.863Z,93.39
2018-02-12T08:00:41.872Z,93.47
2018-02-12T08:01:41.879Z,93.23
2018-02-12T08:02:41.825Z,93.32
2018-02-12T08:03:41.901Z,93.37
2018-02-12T08:04:41.870Z,93.24
2018-02-12T08:05:42.332Z,93.39
2018-02-12T08:06:42.813Z,93.43
2018-02-12T08:07:41.820Z,93.6
2018-02-12T08:08:42.948Z,93.6
2018-02-12T08:09:41.879Z,93.73
2018-02-12T08:10:41.827Z,93.83
2018-02-12T08:11:41.885Z,93.96
2018-02-12T08:12:43.063Z,93.99
2018-02-12T08:13:41.825Z,94.15
2018-02-12T08:14:42.113Z,94.08
2018-02-12T08:15:41.826Z,94.07
2018-02-12T08:16:41.813Z,94.17
2018-02-12T08:17:41.827Z,94.14
2018-02-12T08:18:41.807Z,94.26
2018-02-12T08:19:41.831Z,93.96
2018-02-12T08:20:41.832Z,93.93
2018-02-12T08:21:41.839Z,93.92
2018-02-12T08:22:41.831Z,93.75
2018-02-12T08:23:41.813Z,93.73
2018-02-12T08:24:41.852Z,93.52
2018-02-12T08:25:41.826Z,93.32
2018-02-12T08:26:41.128Z,93.21
2018-02-12T08:27:41.127Z,92.85
2018-02-12T08:28:41.135Z,93.15
2018-02-12T08:29:41.117Z,93.03
2018-02-12T08:30:41.132Z,92.99
2018-02-12T08:31:41.111Z,93.15
2018-02-12T08:32:41.129Z,93.21
2018-02-12T08:33:41.134Z,93.06
2018-02-12T08:34:41.122Z,93.13
2018-02-12T08:35:41.124Z,93.01
2018-02-12T08:36:41.134Z,93.1
2018-02-12T08:37:41.117Z,92.97
2018-02-12T08:38:41.143Z,93.3
2018-02-12T08:39:41.196Z,93.36
2018-02-12T08:40:41.134Z,93.19
2018-02-12T08:41:41.117Z,93.28
2018-02-12T08:42:41.167Z,93.35
2018-02-12T08:43:41.118Z,93.29
2018-02-12T08:44:41.167Z,93.17
2018-02-12T08:45:41.142Z,93.21
2018-02-12T08:46:41.171Z,93.33
2018-02-12T08:47:41.180Z,93.19
2018-02-12T08:48:41.113Z,93.1
2018-02-12T08:49:41.115Z,93.06
2018-02-12T08:50:41.153Z,92.98
2018-02-12T08:51:41.138Z,92.99
2018-02-12T08:52:41.145Z,92.96
2018-02-12T08:53:41.118Z,92.92
2018-02-12T08:54:41.146Z,92.99
2018-02-12T08:55:41.182Z,92.74
2018-02-12T08:56:41.119Z,92.95
2018-02-12T08:57:41.358Z,92.89
2018-02-12T08:58:41.397Z,92.68
2018-02-12T08:59:41.356Z,92.62
2018-02-12T09:00:41.381Z,92.98
2018-02-12T09:01:41.359Z,92.74
2018-02-12T09:02:41.372Z,92.7
2018-02-12T09:03:41.376Z,91.96
2018-02-12T09:04:41.363Z,91.85
2018-02-12T09:05:41.366Z,91.74
2018-02-12T09:06:41.353Z,91.62
2018-02-12T09:07:41.372Z,91.59
2018-02-12T09:08:41.421Z,91.51
2018-02-12T09:09:41.380Z,91.38
2018-02-12T09:10:41.391Z,91.67
2018-02-12T09:11:41.355Z,91.51
2018-02-12T09:12:41.363Z,91.67
2018-02-12T09:13:41.381Z,91.27
2018-02-12T09:14:41.361Z,90.48
2018-02-12T09:15:41.386Z,90.64
2018-02-12T09:16:41.361Z,90.29
2018-02-12T09:17:41.378Z,90.06
2018-02-12T09:18:41.388Z,89.25
2018-02-12T09:19:41.389Z,89.67
2018-02-12T09:20:41.367Z,89.73
2018-02-12T09:21:41.407Z,89.74
2018-02-12T09:22:41.385Z,89.3
2018-02-12T09:23:41.379Z,89.7
2018-02-12T09:24:41.401Z,89.27
2018-02-12T09:25:41.362Z,89.15
2018-02-12T09:26:41.372Z,88.68
2018-02-12T09:27:41.706Z,88.66
2018-02-12T09:28:41.716Z,87.94
2018-02-12T09:29:41.721Z,88.09
2018-02-12T09:30:41.729Z,88.46
2018-02-12T09:31:41.748Z,88.78
2018-02-12T09:32:41.764Z,88.8
2018-02-12T09:33:41.713Z,88.78
2018-02-12T09:34:41.708Z,88.38
2018-02-12T09:35:41.741Z,88.22
2018-02-12T09:36:41.759Z,88.02
2018-02-12T09:37:41.742Z,87.69
2018-02-12T09:38:41.717Z,87.53
2018-02-12T09:39:41.716Z,88.26
2018-02-12T09:40:41.745Z,87.21
2018-02-12T09:41:41.738Z,86.82
2018-02-12T09:42:41.725Z,87.6
2018-02-12T09:43:41.715Z,87.89
2018-02-12T09:44:41.763Z,87.54
2018-02-12T09:45:41.741Z,87.87
2018-02-12T09:46:41.703Z,87.47
2018-02-12T09:47:41.724Z,87.58
2018-02-12T09:48:41.733Z,87.15
2018-02-12T09:49:41.754Z,87.73
2018-02-12T09:50:41.729Z,87.64
2018-02-12T09:51:41.747Z,87.54
2018-02-12T09:52:34.080Z,87.61
2018-02-12T09:53:33.951Z,87.93
2018-02-12T09:54:33.972Z,87.63
2018-02-12T09:55:33.975Z,87.64
2018-02-12T09:56:33.996Z,87.8
2018-02-12T09:57:33.972Z,86.94
2018-02-12T09:58:33.972Z,87.64
2018-02-12T09:59:33.975Z,87.25
2018-02-12T10:00:33.982Z,86.95
2018-02-12T10:01:34.059Z,86.16
2018-02-12T10:02:33.991Z,85.16
2018-02-12T10:03:33.980Z,84.88
2018-02-12T10:04:33.972Z,84.54
2018-02-12T10:05:33.968Z,84.65
2018-02-12T10:06:34.047Z,85.14
2018-02-12T10:07:41.181Z,84.39
2018-02-12T10:08:35.514Z,83
2018-02-12T10:09:39.824Z,83.59
2018-02-12T10:10:41.326Z,84.28
2018-02-12T10:11:39.694Z,83.16
2018-02-12T10:12:41.111Z,83.3
2018-02-12T10:13:42.551Z,83.25
2018-02-12T10:14:47.065Z,83.85
2018-02-12T10:15:39.319Z,84.09
2018-02-12T10:16:40.768Z,84.72
2018-02-12T10:17:42.193Z,83.42
2018-02-12T10:18:42.595Z,82.04
2018-02-12T10:19:47.100Z,81.78
2018-02-12T10:20:39.326Z,80.54
2018-02-12T10:21:37.685Z,80.42
2018-02-12T10:22:42.263Z,80.73
2018-02-12T10:23:37.552Z,79.58
2018-02-12T10:24:42.023Z,79.62
2018-02-12T10:25:40.522Z,79.08
2018-02-12T10:26:41.845Z,79.58
2018-02-12T10:27:40.205Z,79.32
2018-02-12T10:28:41.647Z,79.2
2018-02-12T10:29:40.025Z,77.06
2018-02-12T10:30:38.496Z,77.29
2018-02-12T10:31:39.832Z,77.73
2018-02-12T10:32:41.468Z,78.76
2018-02-12T10:33:39.778Z,78.28
2018-02-12T10:34:44.144Z,79.26
2018-02-12T10:35:39.503Z,79.08
2018-02-12T10:36:47.023Z,77.81
2018-02-12T10:37:39.236Z,78.33
2018-02-12T10:38:40.678Z,77.34
2018-02-12T10:39:42.117Z,78.24
2018-02-12T10:40:37.419Z,76.62
2018-02-12T10:41:41.936Z,76.92
2018-02-12T10:42:40.398Z,77.6
2018-02-12T10:43:41.838Z,76.96
2018-02-12T10:44:40.232Z,76.79
2018-02-12T10:45:41.674Z,76.41
2018-02-12T10:46:42.081Z,76.45
2018-02-12T10:47:44.821Z,77.34
2018-02-12T10:48:41.887Z,77.51
2018-02-12T10:49:40.248Z,77.03
2018-02-12T10:50:41.691Z,77.67
2018-02-12T10:51:40.086Z,76.95
2018-02-12T10:52:41.490Z,77.72
2018-02-12T10:53:39.887Z,77.39
2018-02-12T10:54:41.301Z,78.23
2018-02-12T10:55:42.748Z,79.12
2018-02-12T10:56:47.382Z,79.63
2018-02-12T10:57:42.556Z,78.84
2018-02-12T10:58:40.972Z,78.63
2018-02-12T10:59:35.363Z,78.05
2018-02-12T11:00:35.364Z,77.68
2018-02-12T11:01:35.369Z,76.92
2018-02-12T11:02:36.009Z,77.52
2018-02-12T11:03:35.357Z,77.61
2018-02-12T11:04:35.396Z,78.02
2018-02-12T11:05:35.340Z,78.27
2018-02-12T11:06:35.010Z,77.95
2018-02-12T11:07:35.631Z,78.03
2018-02-12T11:08:35.295Z,78.77
2018-02-12T11:09:35.977Z,78.59
2018-02-12T11:10:35.602Z,77.65
2018-02-12T11:11:35.683Z,77.28
2018-02-12T11:12:36.340Z,76.99
2018-02-12T11:13:35.354Z,76.99
2018-02-12T11:14:36.792Z,77.84
2018-02-12T11:15:35.363Z,77.05
2018-02-12T11:16:35.479Z,77.02
2018-02-12T11:17:35.844Z,76.99
2018-02-12T11:18:35.378Z,75.72
2018-02-12T11:19:35.301Z,75.81
2018-02-12T11:20:35.736Z,74.82
2018-02-12T11:21:35.305Z,76.14
2018-02-12T11:22:35.306Z,75.59
2018-02-12T11:23:35.357Z,76.2
2018-02-12T11:24:36.184Z,76.21
2018-02-12T11:25:34.337Z,76.11
2018-02-12T11:26:34.323Z,76.06
2018-02-12T11:27:34.349Z,74.94
2018-02-12T11:28:34.552Z,74.73
2018-02-12T11:29:34.312Z,74.94
2018-02-12T11:30:34.319Z,75.09
2018-02-12T11:31:34.426Z,75.66
2018-02-12T11:32:34.414Z,73.85
2018-02-12T11:33:34.334Z,74.02
2018-02-12T11:34:34.453Z,73.69
2018-02-12T11:35:34.315Z,74.05
2018-02-12T11:36:34.314Z,73.47
2018-02-12T11:37:35.357Z,73.13
2018-02-12T11:38:34.337Z,74.54
2018-02-12T11:39:34.314Z,72.54
2018-02-12T11:40:34.337Z,71.71
2018-02-12T11:41:34.310Z,71.11
2018-02-12T11:42:35.666Z,70.63
2018-02-12T11:43:34.432Z,70.95
2018-02-12T11:44:34.362Z,71.06
2018-02-12T11:45:34.407Z,71.85
2018-02-12T11:46:34.344Z,72.05
2018-02-12T11:47:34.345Z,72.19
2018-02-12T11:48:34.396Z,70.97
2018-02-12T11:49:34.329Z,71.57
2018-02-12T11:50:34.356Z,70.89
2018-02-12T11:51:34.321Z,71.85
2018-02-12T11:52:34.405Z,72.31
2018-02-12T11:53:34.341Z,72.55
2018-02-12T11:54:34.316Z,72.49
2018-02-12T11:55:34.358Z,73.73
2018-02-12T11:56:34.405Z,73.47
2018-02-12T11:57:34.401Z,74.01
2018-02-12T11:58:34.422Z,74.62
2018-02-12T11:59:34.403Z,73.46
2018-02-12T12:00:34.386Z,72.35
2018-02-12T12:01:34.416Z,72.22
2018-02-12T12:02:34.403Z,72.95
2018-02-12T12:03:34.614Z,72.71
2018-02-12T12:04:34.398Z,71.85
2018-02-12T12:05:34.396Z,72.82
2018-02-12T12:06:34.388Z,71.32
2018-02-12T12:07:34.388Z,71.58
2018-02-12T12:08:34.414Z,72.21
2018-02-12T12:09:34.384Z,71.06
2018-02-12T12:10:34.386Z,69.28
2018-02-12T12:11:34.379Z,70.37
2018-02-12T12:12:34.403Z,69.96
2018-02-12T12:13:34.373Z,69.52
2018-02-12T12:14:34.378Z,67.64
2018-02-12T12:15:34.399Z,67.67
2018-02-12T12:16:34.388Z,68.22
2018-02-12T12:17:34.440Z,67.58
2018-02-12T12:18:34.379Z,68.85
2018-02-12T12:19:36.745Z,68.41
2018-02-12T12:20:34.379Z,67.92
2018-02-12T12:21:34.388Z,68.31
2018-02-12T12:22:34.378Z,68.43
2018-02-12T12:23:34.458Z,67.36
2018-02-12T12:24:34.414Z,67.01
2018-02-12T12:25:34.404Z,66.92
2018-02-12T12:26:34.390Z,66.91
2018-02-12T12:27:34.351Z,66.05
2018-02-12T12:28:34.372Z,66.36
2018-02-12T12:29:34.368Z,66.36
2018-02-12T12:30:34.356Z,66.17
2018-02-12T12:31:34.352Z,66.68
2018-02-12T12:32:34.344Z,66.09
2018-02-12T12:33:34.370Z,65.81
2018-02-12T12:34:34.707Z,66.52
2018-02-12T12:35:34.364Z,65.57
2018-02-12T12:36:34.354Z,66.21
2018-02-12T12:37:34.375Z,66.03
2018-02-12T12:38:34.431Z,65.48
2018-02-12T12:39:34.394Z,64.2
2018-02-12T12:40:34.350Z,64.27
2018-02-12T12:41:34.724Z,64.48
2018-02-12T12:42:34.361Z,64.35
2018-02-12T12:43:34.388Z,64.23
2018-02-12T12:44:34.377Z,63.99
2018-02-12T12:45:34.361Z,63.78
2018-02-12T12:46:34.353Z,63.66
2018-02-12T12:47:34.348Z,62.81
2018-02-12T12:48:34.358Z,63.56
2018-02-12T12:49:34.357Z,62.76
2018-02-12T12:50:34.347Z,63.49
2018-02-12T12:51:34.361Z,61.54
2018-02-12T12:52:34.369Z,62.58
2018-02-12T12:53:34.355Z,62.21
2018-02-12T12:54:34.386Z,61.3
2018-02-12T12:55:34.399Z,62.1
2018-02-12T12:56:34.372Z,61.27
2018-02-12T12:57:34.362Z,62.27
2018-02-12T12:58:34.368Z,61.41
2018-02-12T12:59:34.372Z,61.64
2018-02-12T13:00:34.392Z,62.27
2018-02-12T13:01:34.375Z,62.23